Time;durP1;ratioP1;P1;durP2;ratioP2;P2;SDS_P1;SDS_P2;PMS_P1;PMS_P2;Temp;Humidity;BMP_temperature;BMP_pressure;BME280_temperature;BME280_humidity;BME280_pressure;Samples;Min_cycle;Max_cycle;Signal;HPM_P1;HPM_P2
2020/12/24 00:02:21;;;;;;;9.80;6.93;;;;;;;6.97;78.28;100041.63;5038372;28;20499;-74
2020/12/24 00:04:46;;;;;;;10.50;5.73;;;;;;;7.08;76.98;100038.31;5038537;28;20224;-74
2020/12/24 00:07:11;;;;;;;10.57;5.60;;;;;;;6.90;76.56;100044.16;5038148;28;20269;-74
2020/12/24 00:09:37;;;;;;;7.10;4.90;;;;;;;7.18;76.35;100047.06;5037865;28;20217;-73
2020/12/24 00:12:02;;;;;;;8.27;5.60;;;;;;;6.53;77.58;100045.34;5038437;28;20174;-73
2020/12/24 00:14:28;;;;;;;7.47;5.50;;;;;;;6.35;78.91;100039.03;5038173;28;20275;-74
2020/12/24 00:16:53;;;;;;;5.53;4.67;;;;;;;6.00;78.81;100033.31;5037715;28;20452;-74
2020/12/24 00:19:18;;;;;;;7.93;4.80;;;;;;;6.32;78.62;100017.41;5037516;28;20177;-73
2020/12/24 00:21:44;;;;;;;10.43;4.63;;;;;;;5.39;82.08;100024.44;5037781;28;20201;-74
2020/12/24 00:24:09;;;;;;;5.50;4.60;;;;;;;6.27;79.06;100006.13;5037782;28;20233;-73
2020/12/24 00:26:35;;;;;;;6.87;4.77;;;;;;;5.78;80.60;100013.91;5038258;28;20167;-75
2020/12/24 00:29:06;;;;;;;9.70;5.63;;;;;;;5.67;81.57;100022.38;5037658;28;20268;-73
2020/12/24 00:31:31;;;;;;;7.70;4.67;;;;;;;5.86;79.79;100018.38;5037836;28;20266;-74
2020/12/24 00:33:56;;;;;;;4.70;4.20;;;;;;;5.83;79.36;100027.78;5038035;28;20838;-73
2020/12/24 00:36:21;;;;;;;5.10;4.60;;;;;;;5.92;79.62;100021.94;5037508;28;20272;-73
2020/12/24 00:38:47;;;;;;;5.23;4.73;;;;;;;6.38;77.73;100026.13;5037437;28;20228;-74
2020/12/24 00:41:12;;;;;;;7.63;4.33;;;;;;;6.03;77.73;100036.78;5037925;28;20174;-74
2020/12/24 00:43:37;;;;;;;6.17;4.10;;;;;;;5.89;78.81;100039.13;5037439;28;20504;-73
2020/12/24 00:46:03;;;;;;;5.30;4.00;;;;;;;5.62;79.39;100049.84;5037593;28;20181;-74
2020/12/24 00:48:28;;;;;;;4.20;3.77;;;;;;;5.60;81.02;100046.34;5037715;28;20197;-73
2020/12/24 00:50:53;;;;;;;4.97;3.77;;;;;;;5.48;80.76;100041.84;5037317;28;20687;-73
2020/12/24 00:53:18;;;;;;;4.17;3.73;;;;;;;5.64;79.39;100043.00;5037661;28;20174;-74
2020/12/24 00:55:44;;;;;;;4.80;3.80;;;;;;;5.69;79.58;100037.91;5037599;28;20292;-74
2020/12/24 00:58:09;;;;;;;11.37;4.17;;;;;;;5.57;80.61;100033.38;5037374;28;20170;-74
2020/12/24 01:00:34;;;;;;;5.93;4.67;;;;;;;6.58;77.05;100030.75;5037169;28;20534;-74
2020/12/24 01:03:00;;;;;;;4.63;3.90;;;;;;;5.62;79.32;100042.09;5037564;28;20174;-74
2020/12/24 01:05:25;;;;;;;5.67;4.40;;;;;;;6.57;76.92;100035.03;5037168;28;20563;-73
2020/12/24 01:07:50;;;;;;;9.43;4.50;;;;;;;6.26;77.39;100049.25;5037040;28;20177;-74
2020/12/24 01:10:16;;;;;;;5.50;4.03;;;;;;;6.17;77.45;100043.91;5037282;28;20198;-74
2020/12/24 01:12:41;;;;;;;5.03;4.20;;;;;;;6.74;75.39;100042.22;5037194;28;20182;-74
2020/12/24 01:15:09;;;;;;;4.10;3.67;;;;;;;6.53;74.92;100040.16;5037122;28;20185;-73
2020/12/24 01:17:36;;;;;;;6.30;3.40;;;;;;;6.19;76.27;100037.06;5037388;28;20158;-72
2020/12/24 01:20:03;;;;;;;5.73;4.53;;;;;;;6.40;76.18;100042.56;5036841;28;20417;-73
2020/12/24 01:22:28;;;;;;;7.37;5.03;;;;;;;6.03;76.62;100035.94;5037049;28;20676;-73
2020/12/24 01:24:54;;;;;;;4.03;3.60;;;;;;;5.23;79.70;100040.47;5037017;28;20464;-73
2020/12/24 01:27:19;;;;;;;4.60;3.33;;;;;;;5.51;80.23;100033.28;5037074;28;20170;-73
2020/12/24 01:29:44;;;;;;;5.10;3.60;;;;;;;6.04;77.49;100035.94;5036624;28;20237;-74
2020/12/24 01:32:10;;;;;;;6.03;3.57;;;;;;;6.21;78.00;100025.88;5036854;28;20174;-73
2020/12/24 01:34:35;;;;;;;4.97;3.37;;;;;;;5.02;80.68;100040.91;5036951;28;20483;-74
2020/12/24 01:37:02;;;;;;;5.37;4.10;;;;;;;5.79;78.89;100026.00;5037214;28;20216;-74
2020/12/24 01:39:28;;;;;;;4.70;3.63;;;;;;;5.57;79.16;100023.03;5036852;28;20196;-73
2020/12/24 01:41:53;;;;;;;4.80;3.83;;;;;;;6.47;76.79;100024.53;5036832;28;20415;-73
2020/12/24 01:44:19;;;;;;;3.50;3.20;;;;;;;6.35;77.46;100033.00;5037282;28;20405;-74
2020/12/24 01:46:44;;;;;;;3.80;3.20;;;;;;;6.93;74.48;100024.28;5036870;28;20174;-73
2020/12/24 01:49:10;;;;;;;8.17;3.93;;;;;;;6.84;74.95;100028.50;5036628;28;20564;-73
2020/12/24 01:51:35;;;;;;;5.33;4.20;;;;;;;6.95;74.77;100030.38;5037245;28;20616;-73
2020/12/24 01:54:00;;;;;;;4.13;3.73;;;;;;;6.54;75.67;100028.97;5036744;28;20181;-72
2020/12/24 01:56:26;;;;;;;6.00;4.40;;;;;;;6.74;74.79;100032.69;5036647;28;20181;-73
2020/12/24 01:58:53;;;;;;;6.07;4.47;;;;;;;6.77;74.93;100021.50;5037038;28;20174;-74
2020/12/24 02:01:18;;;;;;;4.73;4.27;;;;;;;6.90;74.53;100031.19;5035219;28;20220;-74
2020/12/24 02:03:44;;;;;;;6.00;5.03;;;;;;;6.64;75.48;100022.19;5035572;28;20460;-73
2020/12/24 02:06:10;;;;;;;5.90;5.00;;;;;;;6.30;77.56;100024.28;5036995;28;20517;-73
2020/12/24 02:08:36;;;;;;;4.60;4.20;;;;;;;6.20;76.60;100018.97;5036511;28;20189;-73
2020/12/24 02:11:01;;;;;;;4.70;4.20;;;;;;;6.15;77.67;100019.75;5036550;28;20869;-73
2020/12/24 02:13:27;;;;;;;5.10;4.60;;;;;;;5.76;78.71;100013.88;5036924;28;20171;-73
2020/12/24 02:15:52;;;;;;;5.97;4.13;;;;;;;5.82;78.20;100014.00;5036489;28;20170;-73
2020/12/24 02:18:18;;;;;;;5.30;4.60;;;;;;;5.96;78.40;100005.59;5036669;28;20559;-73
2020/12/24 02:20:43;;;;;;;5.13;4.53;;;;;;;6.25;77.14;99995.72;5036839;28;20293;-74
2020/12/24 02:23:09;;;;;;;4.60;4.20;;;;;;;5.98;78.11;99991.88;5036338;28;20197;-73
2020/12/24 02:25:35;;;;;;;5.70;4.33;;;;;;;5.87;77.63;99990.78;5036349;28;20218;-73
2020/12/24 02:28:00;;;;;;;5.93;4.50;;;;;;;6.29;76.76;100000.13;5036945;28;20439;-74
2020/12/24 02:30:25;;;;;;;5.20;4.70;;;;;;;6.17;76.56;99999.91;5036306;28;20278;-73
2020/12/24 02:32:51;;;;;;;5.50;4.30;;;;;;;6.40;76.34;99995.97;5036227;28;20170;-73
2020/12/24 02:35:16;;;;;;;7.23;5.43;;;;;;;6.75;75.32;99992.13;5036895;28;20240;-72
2020/12/24 02:37:41;;;;;;;5.13;4.57;;;;;;;6.71;75.15;99978.28;5036418;28;20556;-73
2020/12/24 02:40:07;;;;;;;6.27;4.50;;;;;;;5.70;78.06;99975.88;5036394;28;20178;-72
2020/12/24 02:42:32;;;;;;;7.20;4.80;;;;;;;6.06;77.93;99959.25;5039961;28;20167;-74
2020/12/24 02:44:57;;;;;;;7.90;4.57;;;;;;;6.27;76.29;99956.94;5040018;28;20171;-74
2020/12/24 02:47:22;;;;;;;4.90;4.50;;;;;;;6.39;75.67;99960.56;5039936;28;20551;-73
2020/12/24 02:49:48;;;;;;;5.03;4.63;;;;;;;6.19;77.03;99960.28;5039924;28;20236;-72
2020/12/24 02:52:14;;;;;;;5.27;4.20;;;;;;;5.83;78.76;99960.53;5039672;28;20180;-73
2020/12/24 02:54:39;;;;;;;4.60;4.20;;;;;;;6.34;76.52;99958.78;5039708;28;20417;-72
2020/12/24 02:57:04;;;;;;;7.20;4.43;;;;;;;6.12;77.09;99961.03;5040027;28;20250;-73
2020/12/24 02:59:29;;;;;;;5.17;4.30;;;;;;;6.33;76.62;99957.03;5039467;28;20587;-73
2020/12/24 03:01:55;;;;;;;5.33;4.30;;;;;;;6.15;77.75;99957.63;5039289;28;20598;-73
2020/12/24 03:04:20;;;;;;;4.83;4.30;;;;;;;6.42;75.83;99954.56;5039931;28;20158;-74
2020/12/24 03:06:45;;;;;;;5.33;4.30;;;;;;;6.33;76.63;99950.16;5039659;28;20224;-74
2020/12/24 03:09:11;;;;;;;6.77;4.70;;;;;;;6.33;75.84;99951.84;5039141;28;20162;-73
2020/12/24 03:11:48;;;;;;;5.83;4.80;;;;;;;5.87;77.68;99946.81;5038962;28;20177;-73
2020/12/24 03:14:13;;;;;;;5.60;4.47;;;;;;;5.71;78.33;99951.75;5039143;28;20170;-74
2020/12/24 03:16:39;;;;;;;5.70;4.00;;;;;;;5.55;78.16;99953.19;5036027;28;20425;-73
2020/12/24 03:19:04;;;;;;;4.20;3.80;;;;;;;5.70;77.69;99950.00;5039109;28;20174;-73
2020/12/24 03:21:29;;;;;;;6.40;4.33;;;;;;;6.03;76.28;99946.22;5038973;28;20208;-74
2020/12/24 03:23:55;;;;;;;5.37;3.73;;;;;;;5.74;77.38;99945.75;5038947;28;20241;-73
2020/12/24 03:26:20;;;;;;;4.30;3.90;;;;;;;5.76;77.87;99944.06;5038976;28;20186;-73
2020/12/24 03:28:45;;;;;;;4.53;4.13;;;;;;;5.93;77.44;99935.69;5035855;28;20297;-73
2020/12/24 03:31:11;;;;;;;6.17;4.53;;;;;;;5.73;78.00;99944.88;5038826;28;20205;-73
2020/12/24 03:33:36;;;;;;;5.10;3.80;;;;;;;5.60;77.60;99935.16;5038623;28;20190;-74
2020/12/24 03:36:01;;;;;;;4.80;4.30;;;;;;;5.34;78.52;99939.91;5039172;28;20480;-74
2020/12/24 03:38:26;;;;;;;3.60;3.27;;;;;;;5.49;77.18;99942.75;5038613;28;20228;-74
2020/12/24 03:40:52;;;;;;;3.67;3.37;;;;;;;6.03;75.83;99947.97;5038921;28;20170;-74
2020/12/24 03:43:17;;;;;;;4.37;3.97;;;;;;;5.90;75.80;99942.56;5039246;28;20193;-73
2020/12/24 03:45:42;;;;;;;3.50;3.20;;;;;;;5.49;76.78;99949.63;5038884;28;20417;-74
2020/12/24 03:48:08;;;;;;;3.60;3.30;;;;;;;5.13;78.37;99956.75;5038661;28;20185;-73
2020/12/24 03:50:33;;;;;;;4.23;3.83;;;;;;;5.50;77.90;99949.66;5038669;28;20194;-74
2020/12/24 03:52:58;;;;;;;3.63;3.33;;;;;;;5.73;76.26;99946.59;5038396;28;20173;-74
2020/12/24 03:55:23;;;;;;;10.17;7.27;;;;;;;5.71;76.95;99953.44;5038487;28;20532;-73
2020/12/24 03:57:49;;;;;;;4.60;4.10;;;;;;;5.81;76.38;99951.91;5038798;28;20217;-74
2020/12/24 04:00:14;;;;;;;6.00;4.93;;;;;;;5.80;76.14;99944.97;5038271;28;20171;-74
2020/12/24 04:02:39;;;;;;;4.93;4.33;;;;;;;5.94;75.81;99938.31;5038483;28;20228;-74
2020/12/24 04:05:05;;;;;;;3.40;3.10;;;;;;;5.30;76.62;99941.53;5038918;28;20499;-74
2020/12/24 04:07:30;;;;;;;4.10;3.60;;;;;;;5.32;77.25;99945.03;5038417;28;20181;-73
2020/12/24 04:09:55;;;;;;;5.33;3.43;;;;;;;5.20;78.29;99945.69;5038169;28;20213;-74
2020/12/24 04:12:20;;;;;;;3.93;3.57;;;;;;;5.68;76.22;99943.06;5038595;28;20166;-74
2020/12/24 04:14:46;;;;;;;4.47;4.07;;;;;;;5.58;76.45;99954.97;5038189;28;20197;-73
2020/12/24 04:17:11;;;;;;;5.23;4.30;;;;;;;5.67;76.11;99949.97;5037336;28;20689;-73
2020/12/24 04:19:36;;;;;;;4.50;4.10;;;;;;;6.04;75.12;99960.06;5038295;28;20181;-74
2020/12/24 04:22:02;;;;;;;4.40;4.00;;;;;;;5.66;76.03;99961.13;5038087;28;20465;-74
2020/12/24 04:24:27;;;;;;;3.40;3.10;;;;;;;5.53;76.63;99960.06;5037854;28;20253;-74
2020/12/24 04:26:55;;;;;;;4.10;3.70;;;;;;;5.29;76.16;99963.09;5038264;28;20201;-72
2020/12/24 04:29:21;;;;;;;3.23;3.00;;;;;;;5.03;75.69;99971.22;5037606;28;20229;-75
2020/12/24 04:31:46;;;;;;;3.70;3.40;;;;;;;5.74;75.02;99966.44;5037743;28;20405;-73
2020/12/24 04:34:11;;;;;;;3.13;2.83;;;;;;;5.30;75.04;99966.53;5038164;28;20170;-73
2020/12/24 04:36:37;;;;;;;3.50;3.20;;;;;;;5.35;75.15;99967.50;5037585;28;20224;-74
2020/12/24 04:39:03;;;;;;;3.03;2.77;;;;;;;4.88;76.29;99969.19;5037713;28;20194;-73
2020/12/24 04:41:29;;;;;;;2.93;2.73;;;;;;;5.00;76.35;99976.28;5038081;28;20434;-73
2020/12/24 04:43:55;;;;;;;4.13;3.40;;;;;;;4.91;76.17;99981.28;5037505;28;20410;-73
2020/12/24 04:46:26;;;;;;;3.03;2.60;;;;;;;4.76;75.13;99987.00;5036739;28;20535;-73
2020/12/24 04:48:52;;;;;;;2.90;2.60;;;;;;;4.89;75.88;99993.31;5037928;28;20166;-73
2020/12/24 04:51:20;;;;;;;5.83;3.17;;;;;;;5.01;74.99;99988.38;5037447;28;20478;-74
2020/12/24 04:53:45;;;;;;;3.37;3.07;;;;;;;4.87;73.95;99994.97;5037445;28;20402;-73
2020/12/24 04:56:11;;;;;;;3.53;3.10;;;;;;;4.90;74.18;99989.88;5037749;28;20418;-73
2020/12/24 04:58:36;;;;;;;3.60;3.30;;;;;;;4.95;74.82;99993.44;5037407;28;20189;-74
2020/12/24 05:01:01;;;;;;;3.20;2.90;;;;;;;4.32;74.89;99984.34;5037285;28;20185;-73
2020/12/24 05:03:27;;;;;;;3.20;2.90;;;;;;;3.94;76.58;99986.84;5037255;28;20257;-72
2020/12/24 05:05:52;;;;;;;2.97;2.67;;;;;;;4.26;75.63;99995.34;5037122;28;20170;-73
2020/12/24 05:08:18;;;;;;;2.67;2.47;;;;;;;4.28;75.75;99985.09;5037087;28;20171;-73
2020/12/24 05:11:01;;;;;;;3.10;2.67;;;;;;;4.99;73.58;99984.03;5036752;28;20192;-73
2020/12/24 05:13:27;;;;;;;3.00;2.80;;;;;;;4.59;75.03;99994.41;5037187;28;20413;-74
2020/12/24 05:15:52;;;;;;;3.10;2.90;;;;;;;4.71;75.29;99994.66;5037140;28;20416;-74
2020/12/24 05:18:19;;;;;;;3.10;2.80;;;;;;;4.98;74.60;100003.81;5037083;28;20177;-73
2020/12/24 05:20:45;;;;;;;3.60;3.30;;;;;;;4.95;74.43;99993.44;5036905;28;20308;-74
2020/12/24 05:23:15;;;;;;;3.73;3.43;;;;;;;4.95;74.23;100002.88;5037245;28;20825;-73
2020/12/24 05:25:41;;;;;;;17.10;11.27;;;;;;;4.92;75.02;100011.44;5036847;28;20456;-73
2020/12/24 05:28:07;;;;;;;3.37;3.07;;;;;;;4.74;75.41;100011.94;5036947;28;20504;-74
2020/12/24 05:30:33;;;;;;;2.90;2.60;;;;;;;4.83;75.96;100013.81;5037114;28;20556;-73
2020/12/24 05:32:59;;;;;;;2.50;2.30;;;;;;;4.59;75.84;100012.47;5036893;28;20170;-73
2020/12/24 05:35:25;;;;;;;3.13;2.83;;;;;;;4.84;75.09;100018.16;5036361;28;20500;-74
2020/12/24 05:37:54;;;;;;;3.00;2.80;;;;;;;5.06;73.73;100015.19;5037276;28;20455;-74
2020/12/24 05:40:25;;;;;;;2.40;2.20;;;;;;;4.53;74.95;100014.91;5036646;28;20685;-73
2020/12/24 05:42:58;;;;;;;2.83;2.63;;;;;;;4.51;73.95;100027.78;5036743;28;20409;-74
2020/12/24 05:45:26;;;;;;;2.97;2.77;;;;;;;4.95;73.50;100024.44;5036811;28;20409;-74
2020/12/24 05:48:13;;;;;;;2.67;2.47;;;;;;;4.55;73.68;100018.41;5036740;28;20412;-73
2020/12/24 05:50:40;;;;;;;2.80;2.60;;;;;;;4.59;74.03;100025.38;5036345;28;20538;-73
2020/12/24 05:53:10;;;;;;;2.80;2.60;;;;;;;4.32;75.98;100031.66;5036713;28;20409;-73
2020/12/24 05:55:37;;;;;;;2.57;2.37;;;;;;;4.17;77.58;100042.47;5036814;28;20427;-73
2020/12/24 05:58:03;;;;;;;2.43;2.23;;;;;;;4.20;76.65;100039.09;5036830;28;20507;-72
2020/12/24 06:00:32;;;;;;;2.63;2.43;;;;;;;4.07;77.58;100039.63;5036995;28;20483;-73
2020/12/24 06:03:15;;;;;;;2.83;2.63;;;;;;;4.18;77.47;100043.34;5036730;28;20420;-73
2020/12/24 06:05:53;;;;;;;2.93;2.73;;;;;;;3.62;77.94;100044.50;5037085;28;20416;-74
2020/12/24 06:08:22;;;;;;;2.70;2.50;;;;;;;3.97;77.63;100052.28;5036789;28;20462;-74
2020/12/24 06:10:58;;;;;;;2.60;2.40;;;;;;;3.92;76.82;100059.03;5035644;28;20475;-73
2020/12/24 06:13:25;;;;;;;2.83;2.63;;;;;;;3.69;78.47;100063.59;5036770;28;20413;-73
2020/12/24 06:15:50;;;;;;;2.60;2.40;;;;;;;3.96;77.39;100062.56;5037786;28;20413;-74
2020/12/24 06:18:16;;;;;;;2.93;2.63;;;;;;;3.99;75.89;100068.69;5039630;28;20416;-74
2020/12/24 06:20:43;;;;;;;2.87;2.50;;;;;;;3.95;76.88;100069.44;5039290;28;20170;-74
2020/12/24 06:23:10;;;;;;;2.90;2.70;;;;;;;4.47;75.77;100067.25;5039917;28;20253;-74
2020/12/24 06:25:35;;;;;;;2.77;2.57;;;;;;;3.82;77.92;100064.81;5040088;28;20479;-74
2020/12/24 06:28:02;;;;;;;3.20;2.90;;;;;;;3.39;79.38;100073.94;5039629;28;20425;-75
2020/12/24 06:30:29;;;;;;;2.80;2.60;;;;;;;3.59;78.28;100079.66;5039456;28;20226;-73
2020/12/24 06:32:54;;;;;;;4.33;2.60;;;;;;;3.78;76.87;100079.31;5040010;28;20499;-74
2020/12/24 06:35:40;;;;;;;2.77;2.57;;;;;;;4.10;77.48;100080.97;5040107;28;20413;-74
2020/12/24 06:38:07;;;;;;;3.27;2.97;;;;;;;3.91;77.18;100079.63;5040093;28;20181;-73
2020/12/24 06:40:40;;;;;;;3.20;2.90;;;;;;;3.92;77.21;100092.56;5040267;28;20419;-73
2020/12/24 06:43:06;;;;;;;3.37;2.97;;;;;;;3.94;76.70;100100.31;5039904;28;20452;-73
2020/12/24 06:45:39;;;;;;;3.97;2.80;;;;;;;3.99;77.01;100098.75;5039903;28;20855;-74
2020/12/24 06:48:21;;;;;;;3.13;2.83;;;;;;;4.13;76.62;100099.97;5039850;28;20470;-73
2020/12/24 06:50:50;;;;;;;2.90;2.70;;;;;;;3.80;78.11;100110.28;5039545;28;20567;-72
2020/12/24 06:53:30;;;;;;;3.10;2.90;;;;;;;3.69;78.06;100108.31;5038896;28;20417;-74
2020/12/24 06:56:14;;;;;;;7.90;3.77;;;;;;;3.84;78.06;100117.25;5039779;28;20435;-73
2020/12/24 06:58:51;;;;;;;3.50;3.20;;;;;;;4.28;nan;100121.84;5039742;28;20412;-73
2020/12/24 07:01:19;;;;;;;3.60;3.30;;;;;;;4.28;77.42;100122.72;5039445;28;20558;-73
2020/12/24 07:03:45;;;;;;;4.17;3.77;;;;;;;4.06;77.20;100123.88;5039546;28;20723;-74
2020/12/24 07:06:11;;;;;;;3.87;3.57;;;;;;;4.21;77.73;100126.84;5039555;28;20687;-73
2020/12/24 07:08:36;;;;;;;4.13;3.80;;;;;;;4.00;78.45;100134.88;5039860;28;20413;-73
2020/12/24 07:11:03;;;;;;;4.90;4.40;;;;;;;4.41;77.08;100131.66;5039111;28;20238;-73
2020/12/24 07:13:41;;;;;;;4.63;4.23;;;;;;;4.56;76.89;100138.91;5039195;28;20185;-74
2020/12/24 07:16:11;;;;;;;4.77;4.27;;;;;;;4.86;76.90;100141.31;5039039;28;20507;-74
2020/12/24 07:18:37;;;;;;;4.93;4.53;;;;;;;4.25;78.40;100148.44;5039179;28;20424;-73
2020/12/24 07:21:08;;;;;;;4.77;4.30;;;;;;;4.33;78.80;100153.78;5039471;28;20518;-74
2020/12/24 07:23:35;;;;;;;5.53;4.63;;;;;;;4.60;77.15;100150.16;5039021;28;20709;-73
2020/12/24 07:26:08;;;;;;;4.87;4.43;;;;;;;4.55;nan;100157.78;5039104;28;20443;-74
2020/12/24 07:28:35;;;;;;;7.10;5.57;;;;;;;4.37;79.19;100156.50;5038358;28;20428;-73
2020/12/24 07:31:03;;;;;;;6.33;4.83;;;;;;;4.08;79.79;100165.19;5038677;28;20468;-74
2020/12/24 07:33:29;;;;;;;5.57;5.07;;;;;;;4.22;79.14;100163.81;5039224;28;20413;-73
2020/12/24 07:35:54;;;;;;;6.10;5.43;;;;;;;4.18;79.97;100173.22;5038783;28;20657;-74
2020/12/24 07:38:21;;;;;;;5.77;5.17;;;;;;;4.61;78.61;100181.16;5038752;28;20174;-73
2020/12/24 07:40:46;;;;;;;8.33;6.27;;;;;;;4.46;78.53;100173.91;5039104;28;20190;-73
2020/12/24 07:43:12;;;;;;;6.60;5.43;;;;;;;4.77;77.88;100186.72;5038710;28;20486;-74
2020/12/24 07:45:37;;;;;;;6.93;5.60;;;;;;;4.63;78.36;100189.84;5038650;28;20491;-74
2020/12/24 07:48:09;;;;;;;6.10;5.30;;;;;;;4.42;79.21;100197.03;5038977;28;20170;-74
2020/12/24 07:50:34;;;;;;;5.73;4.83;;;;;;;4.41;79.56;100203.03;5038054;28;20209;-73
2020/12/24 07:53:00;;;;;;;5.73;4.90;;;;;;;4.34;79.74;100202.88;5038400;28;20413;-73
2020/12/24 07:55:25;;;;;;;5.00;4.40;;;;;;;4.34;79.71;100207.16;5038062;28;20178;-74
2020/12/24 07:57:50;;;;;;;6.60;5.10;;;;;;;4.30;79.97;100208.78;5038418;28;20563;-73
2020/12/24 08:00:17;;;;;;;5.60;4.73;;;;;;;4.50;80.05;100211.00;5038168;28;20197;-74
2020/12/24 08:02:42;;;;;;;6.20;5.43;;;;;;;4.37;79.79;100213.28;5038949;28;20475;-73
2020/12/24 08:05:07;;;;;;;6.70;5.30;;;;;;;4.54;79.87;100218.00;5038322;28;20409;-73
2020/12/24 08:07:33;;;;;;;5.00;4.50;;;;;;;4.79;78.87;100226.34;5038337;28;20190;-74
2020/12/24 08:10:11;;;;;;;5.70;4.47;;;;;;;4.96;77.14;100227.63;5038385;28;20461;-73
2020/12/24 08:12:36;;;;;;;4.67;4.17;;;;;;;5.37;75.65;100225.16;5038136;28;20580;-74
2020/12/24 08:15:12;;;;;;;5.13;4.23;;;;;;;5.14;76.52;100234.97;5037958;28;20460;-73
2020/12/24 08:17:44;;;;;;;5.90;5.00;;;;;;;5.31;76.54;100235.34;5037277;28;20166;-74
2020/12/24 08:20:10;;;;;;;5.13;4.63;;;;;;;4.64;78.45;100235.47;5037090;28;20484;-74
2020/12/24 08:22:42;;;;;;;5.37;4.80;;;;;;;5.15;76.83;100248.75;5037112;28;20444;-74
2020/12/24 08:25:08;;;;;;;5.87;4.40;;;;;;;5.12;77.13;100251.28;5037757;28;20858;-73
2020/12/24 08:27:33;;;;;;;4.63;3.93;;;;;;;4.96;77.40;100256.06;5038265;28;20412;-74
2020/12/24 08:29:59;;;;;;;7.10;4.50;;;;;;;5.08;77.22;100260.66;5036666;28;20595;-74
2020/12/24 08:32:25;;;;;;;7.30;4.20;;;;;;;5.12;76.91;100259.03;5037741;28;20829;-73
2020/12/24 08:34:50;;;;;;;8.90;4.30;;;;;;;5.04;77.08;100259.69;5038161;28;20428;-73
2020/12/24 08:37:26;;;;;;;6.07;4.67;;;;;;;5.30;76.40;100266.31;5037848;28;20178;-74
2020/12/24 08:39:51;;;;;;;4.67;4.27;;;;;;;5.31;75.79;100265.50;5036707;28;20531;-73
2020/12/24 08:42:17;;;;;;;5.47;4.30;;;;;;;5.57;76.36;100273.84;5037686;28;20428;-74
2020/12/24 08:44:43;;;;;;;4.47;3.80;;;;;;;5.53;76.04;100269.44;5037639;28;20220;-73
2020/12/24 08:47:09;;;;;;;5.20;4.60;;;;;;;5.96;73.93;100277.28;5037841;28;20728;-73
2020/12/24 08:49:42;;;;;;;6.30;4.10;;;;;;;5.66;74.42;100278.34;5037322;28;20617;-73
2020/12/24 08:52:11;;;;;;;4.93;4.30;;;;;;;5.37;75.78;100284.59;5037596;28;20417;-74
2020/12/24 08:54:37;;;;;;;5.00;4.37;;;;;;;5.92;74.64;100291.84;5037372;28;20417;-73
2020/12/24 08:57:03;;;;;;;4.73;4.10;;;;;;;5.95;74.13;100291.91;5037256;28;20443;-74
2020/12/24 08:59:29;;;;;;;5.07;4.43;;;;;;;6.24;73.12;100294.25;5037396;28;20566;-74
2020/12/24 09:01:56;;;;;;;4.37;3.97;;;;;;;5.97;74.72;100295.41;5037018;28;20414;-74
2020/12/24 09:04:21;;;;;;;9.93;4.50;;;;;;;6.29;73.49;100304.69;5037041;28;20170;-73
2020/12/24 09:06:46;;;;;;;5.50;4.60;;;;;;;6.01;74.34;100304.16;5037427;28;20432;-74
2020/12/24 09:09:25;;;;;;;7.23;4.90;;;;;;;6.31;73.04;100303.88;5036977;28;20196;-74
2020/12/24 09:11:51;;;;;;;5.97;4.93;;;;;;;6.09;73.38;100319.81;5036852;28;20174;-73
2020/12/24 09:14:18;;;;;;;5.63;4.37;;;;;;;6.17;73.04;100319.16;5036809;28;20424;-74
2020/12/24 09:16:57;;;;;;;5.50;4.97;;;;;;;6.02;73.54;100330.06;5036984;28;20860;-74
2020/12/24 09:19:23;;;;;;;5.40;4.50;;;;;;;6.22;73.34;100332.19;5037069;28;20862;-74
2020/12/24 09:21:54;;;;;;;5.27;4.77;;;;;;;6.09;74.30;100333.66;5036709;28;20416;-74
2020/12/24 09:24:19;;;;;;;6.40;5.03;;;;;;;6.42;73.09;100339.50;5036699;28;20228;-73
2020/12/24 09:26:49;;;;;;;6.27;5.40;;;;;;;6.56;72.43;100340.63;5036901;28;20673;-75
2020/12/24 09:29:15;;;;;;;9.47;5.90;;;;;;;6.50;72.58;100346.56;5037032;28;20223;-74
2020/12/24 09:31:50;;;;;;;6.57;5.93;;;;;;;6.25;72.64;100345.16;5036517;28;20472;-75
2020/12/24 09:34:15;;;;;;;6.23;5.63;;;;;;;6.38;73.65;100348.91;5036825;28;20818;-74
2020/12/24 09:36:40;;;;;;;9.97;5.90;;;;;;;6.21;74.18;100354.59;5037061;28;20417;-74
2020/12/24 09:39:06;;;;;;;6.77;6.00;;;;;;;6.71;73.00;100358.16;5036673;28;20174;-72
2020/12/24 09:41:31;;;;;;;8.10;5.70;;;;;;;6.35;73.54;100361.78;5036788;28;20539;-73
2020/12/24 09:43:56;;;;;;;6.90;6.03;;;;;;;6.10;74.22;100362.97;5037169;28;20166;-74
2020/12/24 09:46:24;;;;;;;8.10;6.20;;;;;;;6.32;73.63;100359.13;5036555;28;20564;-74
2020/12/24 09:48:49;;;;;;;6.93;5.93;;;;;;;6.33;73.56;100360.88;5036392;28;20491;-74
2020/12/24 09:51:14;;;;;;;8.50;6.97;;;;;;;6.34;73.48;100357.44;5039814;28;20490;-73
2020/12/24 09:53:40;;;;;;;8.10;6.80;;;;;;;6.42;73.38;100365.38;5040736;28;20173;-74
2020/12/24 09:56:05;;;;;;;9.37;7.83;;;;;;;6.47;73.76;100363.72;5040751;28;20578;-73
2020/12/24 09:58:30;;;;;;;9.47;7.30;;;;;;;6.71;72.90;100371.13;5041050;28;20166;-73
2020/12/24 10:00:56;;;;;;;11.70;9.40;;;;;;;6.78;73.26;100374.69;5040352;28;20182;-74
2020/12/24 10:03:21;;;;;;;10.03;7.80;;;;;;;6.89;72.56;100375.81;5040623;28;20170;-74
2020/12/24 10:05:46;;;;;;;9.13;7.30;;;;;;;6.88;72.20;100377.50;5041102;28;20174;-73
2020/12/24 10:08:12;;;;;;;7.70;6.90;;;;;;;6.63;73.01;100378.75;5040725;28;20174;-74
2020/12/24 10:10:37;;;;;;;9.93;8.17;;;;;;;6.93;72.60;100387.97;5040474;28;20210;-73
2020/12/24 10:13:02;;;;;;;8.97;7.77;;;;;;;6.56;73.81;100392.41;5040924;28;20170;-73
2020/12/24 10:15:28;;;;;;;9.97;8.10;;;;;;;6.60;73.54;100391.63;5040418;28;20197;-73
2020/12/24 10:17:54;;;;;;;8.30;7.10;;;;;;;6.60;73.70;100386.44;5040607;28;20182;-74
2020/12/24 10:20:19;;;;;;;8.90;7.87;;;;;;;6.76;72.80;100385.03;5040839;28;20158;-73
2020/12/24 10:22:44;;;;;;;9.00;7.80;;;;;;;6.84;72.73;100385.19;5040389;28;20467;-73
2020/12/24 10:25:10;;;;;;;10.17;7.70;;;;;;;6.95;72.54;100378.50;5040390;28;20318;-73
2020/12/24 10:27:35;;;;;;;7.93;7.17;;;;;;;6.84;72.98;100380.88;5040746;28;20171;-73
2020/12/24 10:30:00;;;;;;;10.27;7.50;;;;;;;6.65;73.25;100374.47;5040080;28;20280;-74
2020/12/24 10:32:25;;;;;;;8.83;7.73;;;;;;;7.08;72.61;100380.47;5040239;28;20554;-74
2020/12/24 10:34:51;;;;;;;9.50;7.67;;;;;;;7.03;72.73;100379.50;5039864;28;20166;-73
2020/12/24 10:37:16;;;;;;;13.07;8.47;;;;;;;7.35;71.79;100378.34;5040245;28;20572;-73
2020/12/24 10:39:41;;;;;;;11.07;9.30;;;;;;;7.34;72.08;100382.63;5040055;28;20174;-74
2020/12/24 10:42:07;;;;;;;15.50;10.40;;;;;;;7.44;71.73;100372.41;5040423;28;20212;-74
2020/12/24 10:44:32;;;;;;;14.43;11.10;;;;;;;7.49;71.76;100371.66;5039857;28;20526;-73
2020/12/24 10:46:58;;;;;;;16.27;11.13;;;;;;;7.11;72.42;100378.78;5039966;28;20571;-73
2020/12/24 10:49:24;;;;;;;14.80;11.90;;;;;;;7.44;72.18;100383.66;5040043;28;20244;-74
2020/12/24 10:51:50;;;;;;;14.10;11.70;;;;;;;7.68;71.52;100390.09;5039789;28;20174;-74
2020/12/24 10:54:15;;;;;;;18.13;13.30;;;;;;;7.12;73.29;100390.88;5039676;28;20420;-73
2020/12/24 10:56:44;;;;;;;19.37;13.37;;;;;;;7.40;73.03;100392.25;5040104;28;20167;-74
2020/12/24 10:59:09;;;;;;;22.57;15.13;;;;;;;7.49;71.72;100399.31;5039425;28;20174;-73
2020/12/24 11:01:34;;;;;;;24.83;14.63;;;;;;;7.25;72.32;100395.44;5038723;28;20819;-73
2020/12/24 11:03:59;;;;;;;20.73;13.50;;;;;;;6.93;73.62;100390.56;5039951;28;20197;-74
2020/12/24 11:06:27;;;;;;;22.97;15.37;;;;;;;7.12;73.10;100391.78;5039524;28;20184;-74
2020/12/24 11:08:53;;;;;;;18.87;14.50;;;;;;;7.04;73.72;100395.94;5039424;28;20171;-73
2020/12/24 11:11:19;;;;;;;18.80;13.70;;;;;;;7.25;72.58;100395.44;5039701;28;20471;-73
2020/12/24 11:13:46;;;;;;;23.60;15.73;;;;;;;7.37;71.86;100392.19;5039205;28;20162;-73
2020/12/24 11:16:22;;;;;;;25.50;16.10;;;;;;;7.30;72.20;100396.41;5039309;28;20413;-74
2020/12/24 11:18:47;;;;;;;19.70;15.33;;;;;;;7.33;72.34;100395.59;5039157;28;20504;-73
2020/12/24 11:21:13;;;;;;;20.73;14.77;;;;;;;7.23;72.43;100399.75;5039317;28;20500;-73
2020/12/24 11:23:38;;;;;;;24.87;16.10;;;;;;;7.50;71.91;100396.75;5039389;28;20222;-73
2020/12/24 11:26:03;;;;;;;25.07;15.80;;;;;;;7.67;71.51;100402.22;5039242;28;20197;-74
2020/12/24 11:28:29;;;;;;;21.10;15.43;;;;;;;7.53;72.02;100398.53;5039240;28;20587;-74
2020/12/24 11:30:54;;;;;;;22.67;15.37;;;;;;;7.83;70.37;100395.53;5039025;28;20214;-74
2020/12/24 11:33:19;;;;;;;23.97;15.90;;;;;;;7.08;72.86;100400.34;5038960;28;20265;-73